Bayou Teche — WDG7853 — position and weather

sailwx.info

Track history (hours):
 
Tides and Currents Weather Stations Pressure Air Temp Water Temp Dewpoint Dewpoint Depression Visibility Wind Speed Wind Dir Waves Ship Positions

Bayou Teche

Owner: Weeks Marine, Inc., Cranford, NJ. More information available from US FCC via Universal Licensing System and Coast Guard Vessel Documentation Center.

Last reported at 2018-Jun-30 20:00 UTC. Time now 2018-Jul-22 12:55 UTC.
Position N 36°46' W 076°18'.
Warning: this ship's position is 21 days out of date.

Length 13 m.

Type: Other ship. MMSI: 367571480.

Date/timePositionNaut miles runAvg speedWind from/ knotsBaromVisibWave heightAir tempDewpointWater temp
2018-Jun-30 20:00N 36°46' W 076°18'149 4.9
2018-Jun-29 13:41N 39°06' W 075°13'414.3
2018-Jun-29 13:24N 39°10' W 075°16'614.2
2018-Jun-29 13:00N 39°14' W 075°20'715.0
2018-Jun-29 12:30N 39°20' W 075°25'816.0
2018-Jun-29 12:00N 39°26' W 075°32'815.8
2018-Jun-29 11:30N 39°34' W 075°33'815.1
2018-Jun-29 10:59N 39°42' W 075°31'816.3
2018-Jun-29 10:29N 39°48' W 075°25'3 0.2
2018-Jun-28 16:59N 39°49' W 075°22'0 0.0
2018-Jun-28 16:28N 39°49' W 075°22'0 0.0
2018-Jun-28 15:58N 39°49' W 075°22'  
Track history (hours):
 
Tides and Currents Weather Stations Pressure Air Temp Water Temp Dewpoint Dewpoint Depression Visibility Wind Speed Wind Dir Waves Ship Positions

Bayou Teche

Owner: Weeks Marine, Inc., Cranford, NJ. More information available from US FCC via Universal Licensing System and Coast Guard Vessel Documentation Center.

Last reported at 2018-Jun-30 20:00 UTC. Time now 2018-Jul-22 12:55 UTC.
Position N 36°46' W 076°18'.
Warning: this ship's position is 21 days out of date.

Length 13 m.

Type: Other ship. MMSI: 367571480.

Date/timePositionNaut miles runAvg speedWind from/ knotsBaromVisibWave heightAir tempDewpointWater temp
2018-Jun-30 20:00N 36°46' W 076°18'149 4.9
2018-Jun-29 13:41N 39°06' W 075°13'414.3
2018-Jun-29 13:24N 39°10' W 075°16'614.2
2018-Jun-29 13:00N 39°14' W 075°20'715.0
2018-Jun-29 12:30N 39°20' W 075°25'816.0
2018-Jun-29 12:00N 39°26' W 075°32'815.8
2018-Jun-29 11:30N 39°34' W 075°33'815.1
2018-Jun-29 10:59N 39°42' W 075°31'816.3
2018-Jun-29 10:29N 39°48' W 075°25'3 0.2
2018-Jun-28 16:59N 39°49' W 075°22'0 0.0
2018-Jun-28 16:28N 39°49' W 075°22'0 0.0
2018-Jun-28 15:58N 39°49' W 075°22'  

Dump ship's entire track history